KHIF

Hill AFB Airport

Ogden, Utah, USA
METAR KHIF 180238Z AUTO 00000KT 10SM SCT060 SCT090 M02/M05 A3023 RMK AO2 SLP262 FZRANO $
Observed Flight Rules
Dec-18 @ 02:38 UTC (30 minutes ago) Visual Flight Rules
Wind Visibility Clouds
Calm 10 miles
  • Scattered at 6,000' AGL
  • Scattered at 9,000' AGL
Temperatures Readings
Current -2°C / 28°F
Dewpoint -5°C / 23°F
Humidity 80%
Altimeter 30.23" Hg
Pressure 1026.2 hPa
Elevation 1459
METAR KHIF 180238Z AUTO 00000KT 10SM SCT060 SCT090 M02/M05 A3023 RMK AO2 SLP262 FZRANO $
Observed Flight Rules
Dec-18 @ 02:38 UTC
(30 minutes ago)
VFR
Wind Visibility
Calm 10 miles
Clouds
  • Scattered at 6,000' AGL
  • Scattered at 9,000' AGL
Temperature Dewpoint
-2°C / 28°F -5°C / 23°F
Humidity Altimeter Pressure
80% 30.23" Hg 1026.2 hPa